sensor_id;sensor_type;location;lat;lon;timestamp;P1;durP1;ratioP1;P2;durP2;ratioP2
17832;SDS011;9041;49.718;21.798;2024-01-15T00:00:39;59.40;;;22.63;;
17832;SDS011;9041;49.718;21.798;2024-01-15T00:03:05;52.37;;;18.10;;
17832;SDS011;9041;49.718;21.798;2024-01-15T00:05:32;47.53;;;17.67;;
17832;SDS011;9041;49.718;21.798;2024-01-15T00:07:58;51.53;;;20.53;;
17832;SDS011;9041;49.718;21.798;2024-01-15T00:10:25;39.67;;;14.20;;
17832;SDS011;9041;49.718;21.798;2024-01-15T00:12:51;50.83;;;18.43;;
17832;SDS011;9041;49.718;21.798;2024-01-15T00:15:18;39.97;;;15.33;;
17832;SDS011;9041;49.718;21.798;2024-01-15T00:17:48;42.90;;;15.40;;
17832;SDS011;9041;49.718;21.798;2024-01-15T00:20:15;38.80;;;15.73;;
17832;SDS011;9041;49.718;21.798;2024-01-15T00:22:42;36.37;;;14.20;;
17832;SDS011;9041;49.718;21.798;2024-01-15T00:25:09;41.70;;;15.50;;
17832;SDS011;9041;49.718;21.798;2024-01-15T00:27:35;39.27;;;14.97;;
17832;SDS011;9041;49.718;21.798;2024-01-15T00:30:02;37.80;;;14.43;;
17832;SDS011;9041;49.718;21.798;2024-01-15T00:32:29;42.63;;;15.40;;
17832;SDS011;9041;49.718;21.798;2024-01-15T00:35:00;45.43;;;18.03;;
17832;SDS011;9041;49.718;21.798;2024-01-15T00:37:28;33.00;;;12.70;;
17832;SDS011;9041;49.718;21.798;2024-01-15T00:39:54;33.03;;;13.70;;
17832;SDS011;9041;49.718;21.798;2024-01-15T00:42:21;39.33;;;14.97;;
17832;SDS011;9041;49.718;21.798;2024-01-15T00:44:48;36.33;;;13.73;;
17832;SDS011;9041;49.718;21.798;2024-01-15T00:47:15;37.53;;;14.23;;
17832;SDS011;9041;49.718;21.798;2024-01-15T00:49:42;43.83;;;13.37;;
17832;SDS011;9041;49.718;21.798;2024-01-15T00:52:10;34.63;;;13.47;;
17832;SDS011;9041;49.718;21.798;2024-01-15T00:54:37;36.83;;;15.30;;
17832;SDS011;9041;49.718;21.798;2024-01-15T00:57:05;36.13;;;13.90;;
17832;SDS011;9041;49.718;21.798;2024-01-15T00:59:31;32.30;;;12.47;;
17832;SDS011;9041;49.718;21.798;2024-01-15T01:01:58;37.53;;;13.67;;
17832;SDS011;9041;49.718;21.798;2024-01-15T01:04:25;32.13;;;12.27;;
17832;SDS011;9041;49.718;21.798;2024-01-15T01:06:51;40.57;;;15.10;;
17832;SDS011;9041;49.718;21.798;2024-01-15T01:09:19;31.87;;;13.43;;
17832;SDS011;9041;49.718;21.798;2024-01-15T01:11:46;36.07;;;14.03;;
17832;SDS011;9041;49.718;21.798;2024-01-15T01:14:13;40.60;;;13.90;;
17832;SDS011;9041;49.718;21.798;2024-01-15T01:16:39;40.83;;;14.77;;
17832;SDS011;9041;49.718;21.798;2024-01-15T01:19:09;40.53;;;14.70;;
17832;SDS011;9041;49.718;21.798;2024-01-15T01:21:35;41.00;;;14.90;;
17832;SDS011;9041;49.718;21.798;2024-01-15T01:24:02;38.53;;;14.23;;
17832;SDS011;9041;49.718;21.798;2024-01-15T01:26:30;39.43;;;14.40;;
17832;SDS011;9041;49.718;21.798;2024-01-15T01:28:57;34.53;;;13.30;;
17832;SDS011;9041;49.718;21.798;2024-01-15T01:31:24;34.73;;;13.93;;
17832;SDS011;9041;49.718;21.798;2024-01-15T01:33:50;35.90;;;13.07;;
17832;SDS011;9041;49.718;21.798;2024-01-15T01:36:20;34.97;;;13.43;;
17832;SDS011;9041;49.718;21.798;2024-01-15T01:38:46;37.07;;;14.60;;
17832;SDS011;9041;49.718;21.798;2024-01-15T01:41:12;36.67;;;13.60;;
17832;SDS011;9041;49.718;21.798;2024-01-15T01:43:41;34.10;;;12.40;;
17832;SDS011;9041;49.718;21.798;2024-01-15T01:46:09;32.50;;;12.70;;
17832;SDS011;9041;49.718;21.798;2024-01-15T01:48:36;37.23;;;13.70;;
17832;SDS011;9041;49.718;21.798;2024-01-15T01:51:03;33.67;;;12.50;;
17832;SDS011;9041;49.718;21.798;2024-01-15T01:53:31;33.87;;;13.33;;
17832;SDS011;9041;49.718;21.798;2024-01-15T01:55:58;36.93;;;12.97;;
17832;SDS011;9041;49.718;21.798;2024-01-15T01:58:26;33.37;;;12.03;;
17832;SDS011;9041;49.718;21.798;2024-01-15T02:00:54;36.10;;;13.27;;
17832;SDS011;9041;49.718;21.798;2024-01-15T02:03:21;34.83;;;13.27;;
17832;SDS011;9041;49.718;21.798;2024-01-15T02:05:48;33.70;;;12.57;;
17832;SDS011;9041;49.718;21.798;2024-01-15T02:08:15;32.57;;;13.47;;
17832;SDS011;9041;49.718;21.798;2024-01-15T02:10:42;30.90;;;12.20;;
17832;SDS011;9041;49.718;21.798;2024-01-15T02:13:08;26.87;;;10.83;;
17832;SDS011;9041;49.718;21.798;2024-01-15T02:15:35;31.83;;;12.33;;
17832;SDS011;9041;49.718;21.798;2024-01-15T02:18:04;29.57;;;12.33;;
17832;SDS011;9041;49.718;21.798;2024-01-15T02:20:32;32.47;;;11.13;;
17832;SDS011;9041;49.718;21.798;2024-01-15T02:23:09;26.17;;;10.90;;
17832;SDS011;9041;49.718;21.798;2024-01-15T02:25:37;30.50;;;11.10;;
17832;SDS011;9041;49.718;21.798;2024-01-15T02:28:04;28.60;;;11.63;;
17832;SDS011;9041;49.718;21.798;2024-01-15T02:30:31;27.70;;;10.00;;
17832;SDS011;9041;49.718;21.798;2024-01-15T02:32:57;31.00;;;11.17;;
17832;SDS011;9041;49.718;21.798;2024-01-15T02:35:24;34.17;;;12.00;;
17832;SDS011;9041;49.718;21.798;2024-01-15T02:37:51;27.00;;;11.07;;
17832;SDS011;9041;49.718;21.798;2024-01-15T02:40:19;29.37;;;11.00;;
17832;SDS011;9041;49.718;21.798;2024-01-15T02:42:45;29.83;;;10.70;;
17832;SDS011;9041;49.718;21.798;2024-01-15T02:45:12;23.63;;;9.83;;
17832;SDS011;9041;49.718;21.798;2024-01-15T02:47:39;29.00;;;10.80;;
17832;SDS011;9041;49.718;21.798;2024-01-15T02:50:06;26.30;;;10.40;;
17832;SDS011;9041;49.718;21.798;2024-01-15T02:52:33;24.00;;;9.70;;
17832;SDS011;9041;49.718;21.798;2024-01-15T02:54:59;26.93;;;9.40;;
17832;SDS011;9041;49.718;21.798;2024-01-15T02:57:27;26.87;;;10.33;;
17832;SDS011;9041;49.718;21.798;2024-01-15T02:59:54;18.77;;;8.47;;
17832;SDS011;9041;49.718;21.798;2024-01-15T03:02:21;22.33;;;9.37;;
17832;SDS011;9041;49.718;21.798;2024-01-15T03:04:47;23.17;;;8.77;;
17832;SDS011;9041;49.718;21.798;2024-01-15T03:07:14;22.10;;;8.10;;
17832;SDS011;9041;49.718;21.798;2024-01-15T03:09:41;25.07;;;8.97;;
17832;SDS011;9041;49.718;21.798;2024-01-15T03:12:08;23.93;;;10.37;;
17832;SDS011;9041;49.718;21.798;2024-01-15T03:14:36;23.80;;;9.47;;
17832;SDS011;9041;49.718;21.798;2024-01-15T03:17:03;25.07;;;9.47;;
17832;SDS011;9041;49.718;21.798;2024-01-15T03:19:30;26.57;;;10.17;;
17832;SDS011;9041;49.718;21.798;2024-01-15T03:21:56;28.80;;;9.73;;
17832;SDS011;9041;49.718;21.798;2024-01-15T03:24:23;25.30;;;10.17;;
17832;SDS011;9041;49.718;21.798;2024-01-15T03:26:49;25.20;;;9.00;;
17832;SDS011;9041;49.718;21.798;2024-01-15T03:29:16;24.67;;;9.40;;
17832;SDS011;9041;49.718;21.798;2024-01-15T03:31:44;21.93;;;9.07;;
17832;SDS011;9041;49.718;21.798;2024-01-15T03:34:11;20.37;;;8.63;;
17832;SDS011;9041;49.718;21.798;2024-01-15T03:36:37;20.40;;;8.27;;
17832;SDS011;9041;49.718;21.798;2024-01-15T03:39:04;21.63;;;8.40;;
17832;SDS011;9041;49.718;21.798;2024-01-15T03:41:31;17.87;;;8.00;;
17832;SDS011;9041;49.718;21.798;2024-01-15T03:43:58;27.67;;;9.93;;
17832;SDS011;9041;49.718;21.798;2024-01-15T03:46:24;20.40;;;8.53;;
17832;SDS011;9041;49.718;21.798;2024-01-15T03:48:52;22.70;;;8.37;;
17832;SDS011;9041;49.718;21.798;2024-01-15T03:51:19;22.33;;;8.77;;
17832;SDS011;9041;49.718;21.798;2024-01-15T03:53:46;23.23;;;8.30;;
17832;SDS011;9041;49.718;21.798;2024-01-15T03:56:12;19.87;;;8.17;;
17832;SDS011;9041;49.718;21.798;2024-01-15T03:58:39;25.17;;;9.70;;
17832;SDS011;9041;49.718;21.798;2024-01-15T04:01:07;24.67;;;9.60;;
17832;SDS011;9041;49.718;21.798;2024-01-15T04:03:37;19.90;;;8.67;;
17832;SDS011;9041;49.718;21.798;2024-01-15T04:06:05;22.30;;;9.10;;
17832;SDS011;9041;49.718;21.798;2024-01-15T04:08:32;24.67;;;9.40;;
17832;SDS011;9041;49.718;21.798;2024-01-15T04:10:59;26.80;;;9.47;;
17832;SDS011;9041;49.718;21.798;2024-01-15T04:13:26;22.17;;;9.00;;
17832;SDS011;9041;49.718;21.798;2024-01-15T04:15:53;25.57;;;9.57;;
17832;SDS011;9041;49.718;21.798;2024-01-15T04:18:20;26.00;;;9.47;;
17832;SDS011;9041;49.718;21.798;2024-01-15T04:20:46;24.40;;;9.63;;
17832;SDS011;9041;49.718;21.798;2024-01-15T04:23:14;26.27;;;9.07;;
17832;SDS011;9041;49.718;21.798;2024-01-15T04:25:41;23.37;;;8.87;;
17832;SDS011;9041;49.718;21.798;2024-01-15T04:28:07;21.20;;;8.97;;
17832;SDS011;9041;49.718;21.798;2024-01-15T04:30:34;27.10;;;10.83;;
17832;SDS011;9041;49.718;21.798;2024-01-15T04:33:01;24.00;;;9.23;;
17832;SDS011;9041;49.718;21.798;2024-01-15T04:35:27;24.57;;;9.37;;
17832;SDS011;9041;49.718;21.798;2024-01-15T04:37:54;23.80;;;9.87;;
17832;SDS011;9041;49.718;21.798;2024-01-15T04:40:22;24.93;;;10.67;;
17832;SDS011;9041;49.718;21.798;2024-01-15T04:42:48;26.27;;;10.00;;
17832;SDS011;9041;49.718;21.798;2024-01-15T04:45:15;24.80;;;9.37;;
17832;SDS011;9041;49.718;21.798;2024-01-15T04:47:43;24.47;;;9.57;;
17832;SDS011;9041;49.718;21.798;2024-01-15T04:50:10;26.93;;;9.80;;
17832;SDS011;9041;49.718;21.798;2024-01-15T04:52:36;26.40;;;9.70;;
17832;SDS011;9041;49.718;21.798;2024-01-15T04:55:03;26.43;;;9.90;;
17832;SDS011;9041;49.718;21.798;2024-01-15T04:57:34;26.83;;;10.33;;
17832;SDS011;9041;49.718;21.798;2024-01-15T05:00:02;20.37;;;8.73;;
17832;SDS011;9041;49.718;21.798;2024-01-15T05:02:29;24.67;;;9.80;;
17832;SDS011;9041;49.718;21.798;2024-01-15T05:04:55;26.57;;;10.27;;
17832;SDS011;9041;49.718;21.798;2024-01-15T05:07:22;24.13;;;9.30;;
17832;SDS011;9041;49.718;21.798;2024-01-15T05:09:48;28.57;;;10.27;;
17832;SDS011;9041;49.718;21.798;2024-01-15T05:12:15;24.83;;;10.97;;
17832;SDS011;9041;49.718;21.798;2024-01-15T05:14:43;23.60;;;9.90;;
17832;SDS011;9041;49.718;21.798;2024-01-15T05:17:09;25.40;;;10.40;;
17832;SDS011;9041;49.718;21.798;2024-01-15T05:19:36;24.30;;;9.97;;
17832;SDS011;9041;49.718;21.798;2024-01-15T05:22:03;26.37;;;10.40;;
17832;SDS011;9041;49.718;21.798;2024-01-15T05:24:29;27.57;;;10.67;;
17832;SDS011;9041;49.718;21.798;2024-01-15T05:26:56;26.03;;;9.97;;
17832;SDS011;9041;49.718;21.798;2024-01-15T05:29:22;26.87;;;10.57;;
17832;SDS011;9041;49.718;21.798;2024-01-15T05:31:50;30.30;;;11.57;;
17832;SDS011;9041;49.718;21.798;2024-01-15T05:34:17;29.00;;;10.87;;
17832;SDS011;9041;49.718;21.798;2024-01-15T05:36:43;22.73;;;9.70;;
17832;SDS011;9041;49.718;21.798;2024-01-15T05:39:12;25.70;;;11.70;;
17832;SDS011;9041;49.718;21.798;2024-01-15T05:41:39;22.67;;;10.60;;
17832;SDS011;9041;49.718;21.798;2024-01-15T05:44:06;28.70;;;11.77;;
17832;SDS011;9041;49.718;21.798;2024-01-15T05:46:32;33.90;;;13.63;;
17832;SDS011;9041;49.718;21.798;2024-01-15T05:49:00;35.37;;;12.77;;
17832;SDS011;9041;49.718;21.798;2024-01-15T05:51:27;27.23;;;11.90;;
17832;SDS011;9041;49.718;21.798;2024-01-15T05:53:53;27.97;;;11.90;;
17832;SDS011;9041;49.718;21.798;2024-01-15T05:56:20;29.63;;;11.43;;
17832;SDS011;9041;49.718;21.798;2024-01-15T05:58:47;28.70;;;11.07;;
17832;SDS011;9041;49.718;21.798;2024-01-15T06:01:13;30.20;;;11.87;;
17832;SDS011;9041;49.718;21.798;2024-01-15T06:03:40;23.20;;;10.30;;
17832;SDS011;9041;49.718;21.798;2024-01-15T06:06:09;28.53;;;10.80;;
17832;SDS011;9041;49.718;21.798;2024-01-15T06:08:36;31.73;;;13.03;;
17832;SDS011;9041;49.718;21.798;2024-01-15T06:11:02;33.17;;;11.67;;
17832;SDS011;9041;49.718;21.798;2024-01-15T06:13:30;35.87;;;13.53;;
17832;SDS011;9041;49.718;21.798;2024-01-15T06:15:58;31.50;;;11.70;;
17832;SDS011;9041;49.718;21.798;2024-01-15T06:18:25;35.47;;;14.00;;
17832;SDS011;9041;49.718;21.798;2024-01-15T06:20:51;38.23;;;13.73;;
17832;SDS011;9041;49.718;21.798;2024-01-15T06:23:21;41.50;;;16.43;;
17832;SDS011;9041;49.718;21.798;2024-01-15T06:25:48;36.20;;;13.50;;
17832;SDS011;9041;49.718;21.798;2024-01-15T06:28:15;27.53;;;11.20;;
17832;SDS011;9041;49.718;21.798;2024-01-15T06:30:41;32.53;;;13.17;;
17832;SDS011;9041;49.718;21.798;2024-01-15T06:33:08;40.43;;;15.70;;
17832;SDS011;9041;49.718;21.798;2024-01-15T06:35:34;37.20;;;14.20;;
17832;SDS011;9041;49.718;21.798;2024-01-15T06:38:04;34.93;;;13.23;;
17832;SDS011;9041;49.718;21.798;2024-01-15T06:40:35;35.93;;;13.10;;
17832;SDS011;9041;49.718;21.798;2024-01-15T06:43:02;30.27;;;11.87;;
17832;SDS011;9041;49.718;21.798;2024-01-15T06:45:30;34.67;;;13.90;;
17832;SDS011;9041;49.718;21.798;2024-01-15T06:47:57;37.37;;;15.37;;
17832;SDS011;9041;49.718;21.798;2024-01-15T06:50:23;30.77;;;12.00;;
17832;SDS011;9041;49.718;21.798;2024-01-15T06:52:53;39.33;;;13.77;;
17832;SDS011;9041;49.718;21.798;2024-01-15T06:55:19;30.10;;;12.10;;
17832;SDS011;9041;49.718;21.798;2024-01-15T06:57:47;30.67;;;12.07;;
17832;SDS011;9041;49.718;21.798;2024-01-15T07:00:15;31.47;;;12.63;;
17832;SDS011;9041;49.718;21.798;2024-01-15T07:02:42;31.23;;;11.93;;
17832;SDS011;9041;49.718;21.798;2024-01-15T07:05:08;33.83;;;12.93;;
17832;SDS011;9041;49.718;21.798;2024-01-15T07:07:36;28.37;;;11.77;;
17832;SDS011;9041;49.718;21.798;2024-01-15T07:10:02;32.37;;;12.50;;
17832;SDS011;9041;49.718;21.798;2024-01-15T07:12:30;34.20;;;13.07;;
17832;SDS011;9041;49.718;21.798;2024-01-15T07:14:58;32.17;;;12.40;;
17832;SDS011;9041;49.718;21.798;2024-01-15T07:17:24;33.83;;;12.53;;
17832;SDS011;9041;49.718;21.798;2024-01-15T07:19:51;33.47;;;12.73;;
17832;SDS011;9041;49.718;21.798;2024-01-15T07:22:17;36.00;;;12.80;;
17832;SDS011;9041;49.718;21.798;2024-01-15T07:24:44;27.20;;;12.20;;
17832;SDS011;9041;49.718;21.798;2024-01-15T07:27:11;36.20;;;13.17;;
17832;SDS011;9041;49.718;21.798;2024-01-15T07:29:38;30.63;;;12.13;;
17832;SDS011;9041;49.718;21.798;2024-01-15T07:32:11;33.53;;;12.60;;
17832;SDS011;9041;49.718;21.798;2024-01-15T07:34:39;31.83;;;11.77;;
17832;SDS011;9041;49.718;21.798;2024-01-15T07:37:06;32.73;;;12.13;;
17832;SDS011;9041;49.718;21.798;2024-01-15T07:39:33;32.13;;;12.77;;
17832;SDS011;9041;49.718;21.798;2024-01-15T07:41:59;34.13;;;12.30;;
17832;SDS011;9041;49.718;21.798;2024-01-15T07:44:26;37.87;;;13.40;;
17832;SDS011;9041;49.718;21.798;2024-01-15T07:46:53;30.40;;;11.83;;
17832;SDS011;9041;49.718;21.798;2024-01-15T07:49:22;36.87;;;13.10;;
17832;SDS011;9041;49.718;21.798;2024-01-15T07:51:49;37.17;;;13.23;;
17832;SDS011;9041;49.718;21.798;2024-01-15T07:54:16;36.90;;;14.53;;
17832;SDS011;9041;49.718;21.798;2024-01-15T07:56:55;40.63;;;15.43;;
17832;SDS011;9041;49.718;21.798;2024-01-15T07:59:23;36.90;;;14.73;;
17832;SDS011;9041;49.718;21.798;2024-01-15T08:01:49;34.17;;;13.70;;
17832;SDS011;9041;49.718;21.798;2024-01-15T08:04:22;41.70;;;16.20;;
17832;SDS011;9041;49.718;21.798;2024-01-15T08:06:48;45.57;;;17.80;;
17832;SDS011;9041;49.718;21.798;2024-01-15T08:09:15;43.97;;;16.73;;
17832;SDS011;9041;49.718;21.798;2024-01-15T08:11:41;49.03;;;17.40;;
17832;SDS011;9041;49.718;21.798;2024-01-15T08:14:08;51.77;;;18.03;;
17832;SDS011;9041;49.718;21.798;2024-01-15T08:16:35;49.43;;;19.23;;
17832;SDS011;9041;49.718;21.798;2024-01-15T08:19:02;52.13;;;19.20;;
17832;SDS011;9041;49.718;21.798;2024-01-15T08:21:32;42.27;;;17.20;;
17832;SDS011;9041;49.718;21.798;2024-01-15T08:24:00;35.03;;;14.10;;
17832;SDS011;9041;49.718;21.798;2024-01-15T08:26:28;33.17;;;13.30;;
17832;SDS011;9041;49.718;21.798;2024-01-15T08:28:57;30.40;;;12.93;;
17832;SDS011;9041;49.718;21.798;2024-01-15T08:31:24;30.83;;;12.10;;
17832;SDS011;9041;49.718;21.798;2024-01-15T08:33:53;34.87;;;12.50;;
17832;SDS011;9041;49.718;21.798;2024-01-15T08:36:20;35.93;;;13.17;;
17832;SDS011;9041;49.718;21.798;2024-01-15T08:38:50;42.33;;;12.83;;
17832;SDS011;9041;49.718;21.798;2024-01-15T08:41:17;35.97;;;13.97;;
17832;SDS011;9041;49.718;21.798;2024-01-15T08:43:43;32.97;;;12.40;;
17832;SDS011;9041;49.718;21.798;2024-01-15T08:46:10;33.00;;;12.20;;
17832;SDS011;9041;49.718;21.798;2024-01-15T08:48:37;34.87;;;12.67;;
17832;SDS011;9041;49.718;21.798;2024-01-15T08:51:04;29.73;;;10.90;;
17832;SDS011;9041;49.718;21.798;2024-01-15T08:53:31;32.37;;;12.67;;
17832;SDS011;9041;49.718;21.798;2024-01-15T08:56:02;28.50;;;12.17;;
17832;SDS011;9041;49.718;21.798;2024-01-15T08:58:28;35.73;;;13.03;;
17832;SDS011;9041;49.718;21.798;2024-01-15T09:00:57;32.97;;;13.77;;
17832;SDS011;9041;49.718;21.798;2024-01-15T09:03:24;30.73;;;13.77;;
17832;SDS011;9041;49.718;21.798;2024-01-15T09:05:51;32.57;;;13.17;;
17832;SDS011;9041;49.718;21.798;2024-01-15T09:08:21;36.30;;;12.43;;
17832;SDS011;9041;49.718;21.798;2024-01-15T09:10:51;31.73;;;12.07;;
17832;SDS011;9041;49.718;21.798;2024-01-15T09:13:21;32.13;;;12.53;;
17832;SDS011;9041;49.718;21.798;2024-01-15T09:15:48;32.03;;;13.10;;
17832;SDS011;9041;49.718;21.798;2024-01-15T09:18:15;33.13;;;13.43;;
17832;SDS011;9041;49.718;21.798;2024-01-15T09:20:41;28.53;;;12.37;;
17832;SDS011;9041;49.718;21.798;2024-01-15T09:23:08;31.80;;;11.80;;
17832;SDS011;9041;49.718;21.798;2024-01-15T09:25:35;28.73;;;11.83;;
17832;SDS011;9041;49.718;21.798;2024-01-15T09:28:01;30.77;;;11.80;;
17832;SDS011;9041;49.718;21.798;2024-01-15T09:30:38;27.97;;;12.30;;
17832;SDS011;9041;49.718;21.798;2024-01-15T09:33:07;35.57;;;12.83;;
17832;SDS011;9041;49.718;21.798;2024-01-15T09:35:34;26.63;;;11.63;;
17832;SDS011;9041;49.718;21.798;2024-01-15T09:38:01;30.57;;;11.70;;
17832;SDS011;9041;49.718;21.798;2024-01-15T09:40:28;33.13;;;12.63;;
17832;SDS011;9041;49.718;21.798;2024-01-15T09:42:58;31.60;;;12.60;;
17832;SDS011;9041;49.718;21.798;2024-01-15T09:45:25;30.60;;;11.93;;
17832;SDS011;9041;49.718;21.798;2024-01-15T09:47:56;29.00;;;12.87;;
17832;SDS011;9041;49.718;21.798;2024-01-15T09:50:23;36.10;;;12.30;;
17832;SDS011;9041;49.718;21.798;2024-01-15T09:52:50;27.30;;;11.83;;
17832;SDS011;9041;49.718;21.798;2024-01-15T09:55:17;26.97;;;11.70;;
17832;SDS011;9041;49.718;21.798;2024-01-15T09:57:47;28.77;;;12.23;;
17832;SDS011;9041;49.718;21.798;2024-01-15T10:00:14;30.93;;;11.87;;
17832;SDS011;9041;49.718;21.798;2024-01-15T10:02:46;33.93;;;13.47;;
17832;SDS011;9041;49.718;21.798;2024-01-15T10:05:14;35.77;;;13.53;;
17832;SDS011;9041;49.718;21.798;2024-01-15T10:07:40;34.43;;;13.77;;
17832;SDS011;9041;49.718;21.798;2024-01-15T10:10:07;47.77;;;17.10;;
17832;SDS011;9041;49.718;21.798;2024-01-15T10:12:35;46.23;;;18.50;;
17832;SDS011;9041;49.718;21.798;2024-01-15T10:15:02;48.10;;;24.93;;
17832;SDS011;9041;49.718;21.798;2024-01-15T10:17:29;60.47;;;28.37;;
17832;SDS011;9041;49.718;21.798;2024-01-15T10:19:58;62.73;;;24.13;;
17832;SDS011;9041;49.718;21.798;2024-01-15T10:22:27;66.13;;;32.23;;
17832;SDS011;9041;49.718;21.798;2024-01-15T10:24:54;55.50;;;28.77;;
17832;SDS011;9041;49.718;21.798;2024-01-15T10:27:20;56.63;;;28.33;;
17832;SDS011;9041;49.718;21.798;2024-01-15T10:29:48;50.47;;;21.10;;
17832;SDS011;9041;49.718;21.798;2024-01-15T10:32:19;63.07;;;31.97;;
17832;SDS011;9041;49.718;21.798;2024-01-15T10:34:49;44.93;;;18.37;;
17832;SDS011;9041;49.718;21.798;2024-01-15T10:37:19;43.07;;;19.70;;
17832;SDS011;9041;49.718;21.798;2024-01-15T10:39:47;51.37;;;23.00;;
17832;SDS011;9041;49.718;21.798;2024-01-15T10:42:14;54.33;;;23.17;;
17832;SDS011;9041;49.718;21.798;2024-01-15T10:44:43;47.70;;;19.97;;
17832;SDS011;9041;49.718;21.798;2024-01-15T10:47:11;52.13;;;22.20;;
17832;SDS011;9041;49.718;21.798;2024-01-15T10:49:40;47.90;;;18.70;;
17832;SDS011;9041;49.718;21.798;2024-01-15T10:52:11;46.93;;;17.77;;
17832;SDS011;9041;49.718;21.798;2024-01-15T10:54:37;41.07;;;17.20;;
17832;SDS011;9041;49.718;21.798;2024-01-15T10:57:06;38.60;;;17.00;;
17832;SDS011;9041;49.718;21.798;2024-01-15T10:59:33;37.67;;;16.63;;
17832;SDS011;9041;49.718;21.798;2024-01-15T11:02:00;47.00;;;19.47;;
17832;SDS011;9041;49.718;21.798;2024-01-15T11:04:27;46.40;;;18.70;;
17832;SDS011;9041;49.718;21.798;2024-01-15T11:06:53;45.50;;;18.13;;
17832;SDS011;9041;49.718;21.798;2024-01-15T11:09:21;42.10;;;16.83;;
17832;SDS011;9041;49.718;21.798;2024-01-15T11:11:52;44.50;;;16.40;;
17832;SDS011;9041;49.718;21.798;2024-01-15T11:14:34;41.93;;;15.37;;
17832;SDS011;9041;49.718;21.798;2024-01-15T11:17:03;34.60;;;15.50;;
17832;SDS011;9041;49.718;21.798;2024-01-15T11:19:37;39.53;;;17.47;;
17832;SDS011;9041;49.718;21.798;2024-01-15T11:22:05;37.00;;;15.43;;
17832;SDS011;9041;49.718;21.798;2024-01-15T11:24:34;39.47;;;15.80;;
17832;SDS011;9041;49.718;21.798;2024-01-15T11:27:02;38.43;;;16.03;;
17832;SDS011;9041;49.718;21.798;2024-01-15T11:29:29;46.17;;;15.53;;
17832;SDS011;9041;49.718;21.798;2024-01-15T11:32:01;38.17;;;14.37;;
17832;SDS011;9041;49.718;21.798;2024-01-15T11:40:37;38.87;;;14.80;;
17832;SDS011;9041;49.718;21.798;2024-01-15T11:43:04;39.67;;;14.90;;
17832;SDS011;9041;49.718;21.798;2024-01-15T11:45:35;38.97;;;14.60;;
17832;SDS011;9041;49.718;21.798;2024-01-15T11:48:11;36.33;;;14.50;;
17832;SDS011;9041;49.718;21.798;2024-01-15T11:50:40;31.43;;;14.10;;
17832;SDS011;9041;49.718;21.798;2024-01-15T11:53:16;31.93;;;12.30;;
17832;SDS011;9041;49.718;21.798;2024-01-15T11:55:44;33.37;;;13.07;;
17832;SDS011;9041;49.718;21.798;2024-01-15T11:58:13;22.67;;;10.00;;
17832;SDS011;9041;49.718;21.798;2024-01-15T12:00:42;29.43;;;11.53;;
17832;SDS011;9041;49.718;21.798;2024-01-15T12:03:13;27.23;;;10.33;;
17832;SDS011;9041;49.718;21.798;2024-01-15T12:05:40;24.67;;;10.00;;
17832;SDS011;9041;49.718;21.798;2024-01-15T12:08:07;26.97;;;9.63;;
17832;SDS011;9041;49.718;21.798;2024-01-15T12:10:36;26.83;;;10.70;;
17832;SDS011;9041;49.718;21.798;2024-01-15T12:13:04;24.67;;;9.77;;
17832;SDS011;9041;49.718;21.798;2024-01-15T12:15:32;24.80;;;10.13;;
17832;SDS011;9041;49.718;21.798;2024-01-15T12:17:59;23.83;;;10.20;;
17832;SDS011;9041;49.718;21.798;2024-01-15T12:20:30;29.27;;;10.43;;
17832;SDS011;9041;49.718;21.798;2024-01-15T12:22:57;26.43;;;10.47;;
17832;SDS011;9041;49.718;21.798;2024-01-15T12:25:24;26.40;;;10.83;;
17832;SDS011;9041;49.718;21.798;2024-01-15T12:27:52;25.33;;;9.93;;
17832;SDS011;9041;49.718;21.798;2024-01-15T12:30:19;27.07;;;10.17;;
17832;SDS011;9041;49.718;21.798;2024-01-15T12:32:46;26.10;;;10.20;;
17832;SDS011;9041;49.718;21.798;2024-01-15T12:35:13;26.63;;;9.77;;
17832;SDS011;9041;49.718;21.798;2024-01-15T12:37:42;27.17;;;10.83;;
17832;SDS011;9041;49.718;21.798;2024-01-15T12:40:09;26.87;;;10.93;;
17832;SDS011;9041;49.718;21.798;2024-01-15T12:42:39;25.90;;;9.60;;
17832;SDS011;9041;49.718;21.798;2024-01-15T12:45:07;28.07;;;10.47;;
17832;SDS011;9041;49.718;21.798;2024-01-15T12:47:34;24.53;;;10.20;;
17832;SDS011;9041;49.718;21.798;2024-01-15T12:50:08;23.70;;;9.90;;
17832;SDS011;9041;49.718;21.798;2024-01-15T12:52:35;24.60;;;9.73;;
17832;SDS011;9041;49.718;21.798;2024-01-15T12:55:04;24.57;;;9.77;;
17832;SDS011;9041;49.718;21.798;2024-01-15T12:57:33;29.93;;;11.37;;
17832;SDS011;9041;49.718;21.798;2024-01-15T13:00:01;31.63;;;12.17;;
17832;SDS011;9041;49.718;21.798;2024-01-15T13:02:31;33.30;;;12.93;;
17832;SDS011;9041;49.718;21.798;2024-01-15T13:04:58;31.60;;;12.70;;
17832;SDS011;9041;49.718;21.798;2024-01-15T13:07:25;28.53;;;11.97;;
17832;SDS011;9041;49.718;21.798;2024-01-15T13:09:52;37.63;;;13.40;;
17832;SDS011;9041;49.718;21.798;2024-01-15T13:12:20;35.60;;;13.80;;
17832;SDS011;9041;49.718;21.798;2024-01-15T13:14:49;42.07;;;15.27;;
17832;SDS011;9041;49.718;21.798;2024-01-15T13:17:15;33.53;;;13.27;;
17832;SDS011;9041;49.718;21.798;2024-01-15T13:19:45;37.47;;;13.50;;
17832;SDS011;9041;49.718;21.798;2024-01-15T13:22:12;31.27;;;13.70;;
17832;SDS011;9041;49.718;21.798;2024-01-15T13:24:40;71.20;;;20.53;;
17832;SDS011;9041;49.718;21.798;2024-01-15T13:27:07;38.17;;;13.33;;
17832;SDS011;9041;49.718;21.798;2024-01-15T13:29:35;39.10;;;14.20;;
17832;SDS011;9041;49.718;21.798;2024-01-15T13:32:02;32.17;;;13.87;;
17832;SDS011;9041;49.718;21.798;2024-01-15T13:34:30;42.17;;;14.60;;
17832;SDS011;9041;49.718;21.798;2024-01-15T13:36:56;36.30;;;14.33;;
17832;SDS011;9041;49.718;21.798;2024-01-15T13:39:23;38.13;;;14.37;;
17832;SDS011;9041;49.718;21.798;2024-01-15T13:41:49;34.80;;;13.80;;
17832;SDS011;9041;49.718;21.798;2024-01-15T13:44:16;40.63;;;14.50;;
17832;SDS011;9041;49.718;21.798;2024-01-15T13:46:46;36.00;;;13.70;;
17832;SDS011;9041;49.718;21.798;2024-01-15T13:49:13;33.27;;;14.13;;
17832;SDS011;9041;49.718;21.798;2024-01-15T13:51:39;30.50;;;12.63;;
17832;SDS011;9041;49.718;21.798;2024-01-15T13:54:08;34.93;;;15.13;;
17832;SDS011;9041;49.718;21.798;2024-01-15T13:56:34;27.47;;;12.20;;
17832;SDS011;9041;49.718;21.798;2024-01-15T13:59:01;27.17;;;11.20;;
17832;SDS011;9041;49.718;21.798;2024-01-15T14:01:29;28.33;;;12.17;;
17832;SDS011;9041;49.718;21.798;2024-01-15T14:03:57;28.33;;;12.20;;
17832;SDS011;9041;49.718;21.798;2024-01-15T14:06:23;33.67;;;12.33;;
17832;SDS011;9041;49.718;21.798;2024-01-15T14:08:53;29.63;;;11.47;;
17832;SDS011;9041;49.718;21.798;2024-01-15T14:11:19;28.37;;;11.90;;
17832;SDS011;9041;49.718;21.798;2024-01-15T14:13:46;29.33;;;12.70;;
17832;SDS011;9041;49.718;21.798;2024-01-15T14:16:16;32.57;;;12.60;;
17832;SDS011;9041;49.718;21.798;2024-01-15T14:18:43;32.43;;;12.20;;
17832;SDS011;9041;49.718;21.798;2024-01-15T14:21:11;31.47;;;12.17;;
17832;SDS011;9041;49.718;21.798;2024-01-15T14:23:38;28.97;;;11.20;;
17832;SDS011;9041;49.718;21.798;2024-01-15T14:26:04;30.03;;;12.70;;
17832;SDS011;9041;49.718;21.798;2024-01-15T14:28:31;32.87;;;13.07;;
17832;SDS011;9041;49.718;21.798;2024-01-15T14:30:58;32.93;;;13.37;;